Главная страница
METAR-TAF:

METAR-TAF

Аэропорты :

Grant County Airport

Петербург, Западная Виргиния, США

широта: 38-59N, долгота: 079-08W, высота над уровнем моря: 293 м

Текущие метеонаблюдения

Эта сводка был подготовлена 21 минут назад, в 02:55 UTC
Ветер 5 Узел от северный
Температура -5°C
Влажность 79%
Давление 1026 hPa
Видимость: 16.1 км
Отдельные облака на высоте 3500 фута
Рассеянная облачность на высоте 4100 фута
Сплошная облачность на высоте 6000 фута

METAR: KW99 130255Z AUTO 36005KT 10SM SCT035 BKN041 OVC060 M05/M08 A3030 RMK AO2 T10481076

Время: 22:16 (03:16 UTC)


TAF: отсутствует

Метеонаблюдения и прогнозы для более 4000 аэропортов (сводки METAR и TAF).

Имеющиеся станции представлены на карте желтыми и красными точками.

Чтобы увидеть название станции, наведите на нее мышь.

Затем щелкните, чтобы увидеть метеонаблюдения и метеопрогнозы.

Управление картой: чтобы увеличить масштаб, щелкните зеленые кнопки с черным крестиком; чтобы уменьшить масштаб, щелкните зеленую кнопку с тире; для просмотра соседних карт щелкайте зеленые стрелки.


METAR-TAF: